createdAt,value
2022-10-09T00:01:16.320Z,12.55
2022-10-09T00:03:43.997Z,12.75
2022-10-09T00:06:11.564Z,12.65
2022-10-09T00:08:41.426Z,12.65
2022-10-09T00:11:08.621Z,12.69
2022-10-09T00:13:35.479Z,12.73
2022-10-09T00:16:02.958Z,12.65
2022-10-09T00:18:29.187Z,12.53
2022-10-09T00:20:55.484Z,12.47
2022-10-09T00:23:21.790Z,12.43
2022-10-09T00:25:52.763Z,12.40
2022-10-09T00:28:21.104Z,11.86
2022-10-09T00:30:47.623Z,12.48
2022-10-09T00:33:14.259Z,12.48
2022-10-09T00:35:40.895Z,12.42
2022-10-09T00:38:07.328Z,12.32
2022-10-09T00:40:34.449Z,12.28
2022-10-09T00:43:00.995Z,12.37
2022-10-09T00:45:27.551Z,12.36
2022-10-09T00:48:04.980Z,12.37
2022-10-09T00:50:38.292Z,12.31
2022-10-09T00:53:04.564Z,12.19
2022-10-09T00:55:32.226Z,12.27
2022-10-09T00:57:59.649Z,12.22
2022-10-09T01:00:26.800Z,12.30
2022-10-09T01:02:54.108Z,12.02
2022-10-09T01:05:25.061Z,11.96
2022-10-09T01:07:58.321Z,11.71
2022-10-09T01:10:32.835Z,11.96
2022-10-09T01:13:02.255Z,11.99
2022-10-09T01:15:33.876Z,12.01
2022-10-09T01:18:13.685Z,11.99
2022-10-09T01:20:51.754Z,12.00
2022-10-09T01:23:36.928Z,11.90
2022-10-09T01:26:06.230Z,11.93
2022-10-09T01:28:33.373Z,11.87
2022-10-09T01:31:01.749Z,11.71
2022-10-09T01:33:29.434Z,11.61
2022-10-09T01:35:55.944Z,11.64
2022-10-09T01:38:24.123Z,11.74
2022-10-09T01:40:52.268Z,11.81
2022-10-09T01:43:18.783Z,11.83
2022-10-09T01:45:46.015Z,11.81
2022-10-09T01:48:16.428Z,11.84
2022-10-09T01:50:48.094Z,11.76
2022-10-09T01:53:18.149Z,11.74
2022-10-09T01:55:58.012Z,11.66
2022-10-09T01:58:36.110Z,11.65
2022-10-09T02:01:15.453Z,11.74
2022-10-09T02:03:43.121Z,11.72
2022-10-09T02:06:11.807Z,11.55
2022-10-09T02:08:39.222Z,11.60
2022-10-09T02:11:05.865Z,11.49
2022-10-09T02:13:33.480Z,11.55
2022-10-09T02:16:18.847Z,11.53
2022-10-09T02:18:46.418Z,11.57
2022-10-09T02:21:18.206Z,11.60
2022-10-09T02:23:46.109Z,11.53
2022-10-09T02:26:13.058Z,11.48
2022-10-09T02:28:45.134Z,11.53
2022-10-09T02:31:19.821Z,11.57
2022-10-09T02:33:46.158Z,11.48
2022-10-09T02:36:13.206Z,11.42
2022-10-09T02:38:39.451Z,11.28
2022-10-09T02:41:05.685Z,11.33
2022-10-09T02:43:31.974Z,11.36
2022-10-09T02:45:58.367Z,11.37
2022-10-09T02:48:24.742Z,11.31
2022-10-09T02:50:51.179Z,11.36
2022-10-09T02:53:17.403Z,11.38
2022-10-09T02:55:43.690Z,11.20
2022-10-09T02:58:10.022Z,11.27
2022-10-09T03:00:37.608Z,11.24
2022-10-09T03:03:03.964Z,11.05
2022-10-09T03:05:30.298Z,11.01
2022-10-09T03:07:56.498Z,10.99
2022-10-09T03:10:22.798Z,11.11
2022-10-09T03:12:49.365Z,11.10
2022-10-09T03:15:16.082Z,11.01
2022-10-09T03:17:42.333Z,10.97
2022-10-09T03:20:08.915Z,11.10
2022-10-09T03:22:35.142Z,11.11
2022-10-09T03:25:01.442Z,10.97
2022-10-09T03:27:27.686Z,11.02
2022-10-09T03:29:53.921Z,11.03
2022-10-09T03:32:20.183Z,11.04
2022-10-09T03:34:46.489Z,10.90
2022-10-09T03:37:12.752Z,10.83
2022-10-09T03:39:39.012Z,10.82
2022-10-09T03:42:05.325Z,10.82
2022-10-09T03:44:31.650Z,10.77
2022-10-09T03:46:57.983Z,10.81
2022-10-09T03:49:24.413Z,10.88
2022-10-09T03:51:50.748Z,10.83
2022-10-09T03:54:16.989Z,10.89
2022-10-09T03:56:43.272Z,10.82
2022-10-09T03:59:09.940Z,10.78
2022-10-09T04:01:36.280Z,10.86
2022-10-09T04:04:02.695Z,10.88
2022-10-09T04:06:28.985Z,10.86
2022-10-09T04:08:56.655Z,10.68
2022-10-09T04:11:23.401Z,10.50
2022-10-09T04:13:49.677Z,10.60
2022-10-09T04:16:16.503Z,10.55
2022-10-09T04:18:44.232Z,10.59
2022-10-09T04:21:10.602Z,10.40
2022-10-09T04:23:36.878Z,10.40
2022-10-09T04:26:03.167Z,10.46
2022-10-09T04:28:30.696Z,10.43
2022-10-09T04:30:57.646Z,10.40
2022-10-09T04:33:24.454Z,10.37
2022-10-09T04:35:52.052Z,10.32
2022-10-09T04:38:19.208Z,10.42
2022-10-09T04:40:54.754Z,10.50
2022-10-09T04:43:20.967Z,10.43
2022-10-09T04:45:47.287Z,10.31
2022-10-09T04:48:13.562Z,10.31
2022-10-09T04:50:39.937Z,10.25
2022-10-09T04:53:06.161Z,10.13
2022-10-09T04:55:32.429Z,10.24
2022-10-09T04:57:58.666Z,10.36
2022-10-09T05:00:24.922Z,10.27
2022-10-09T05:02:51.565Z,10.26
2022-10-09T05:05:18.002Z,10.22
2022-10-09T05:07:44.224Z,10.25
2022-10-09T05:10:10.467Z,10.19
2022-10-09T05:12:36.758Z,10.20
2022-10-09T05:15:03.113Z,10.13
2022-10-09T05:17:29.434Z,10.05
2022-10-09T05:19:55.702Z,10.13
2022-10-09T05:22:21.969Z,10.18
2022-10-09T05:24:48.209Z,10.15
2022-10-09T05:27:14.429Z,10.04
2022-10-09T05:29:40.682Z,10.06
2022-10-09T05:32:07.061Z,10.17
2022-10-09T05:34:33.821Z,10.17
2022-10-09T05:37:00.039Z,10.22
2022-10-09T05:39:26.265Z,10.30
2022-10-09T05:41:52.494Z,10.34
2022-10-09T05:44:18.769Z,10.31
2022-10-09T05:46:44.994Z,10.32
2022-10-09T05:49:12.158Z,10.58
2022-10-09T05:51:39.629Z,10.73
2022-10-09T05:54:06.196Z,10.71
2022-10-09T05:56:33.783Z,10.71
2022-10-09T05:59:01.251Z,10.74
2022-10-09T06:01:28.726Z,10.76
2022-10-09T06:03:56.843Z,10.71
2022-10-09T06:06:24.200Z,10.76
2022-10-09T06:08:50.458Z,10.79
2022-10-09T06:11:19.834Z,10.83
2022-10-09T06:13:46.502Z,10.88
2022-10-09T06:16:13.986Z,10.93
2022-10-09T06:18:43.519Z,10.93
2022-10-09T06:21:11.843Z,10.94
2022-10-09T06:23:38.119Z,10.94
2022-10-09T06:26:06.008Z,10.87
2022-10-09T06:28:32.885Z,10.90
2022-10-09T06:31:03.280Z,10.94
2022-10-09T06:33:30.861Z,11.13
2022-10-09T06:36:09.481Z,11.32
2022-10-09T06:38:36.988Z,11.35
2022-10-09T06:41:04.255Z,11.31
2022-10-09T06:43:31.382Z,11.52
2022-10-09T06:46:00.345Z,11.56
2022-10-09T06:48:28.202Z,11.64
2022-10-09T06:50:54.431Z,11.69
2022-10-09T06:53:20.662Z,11.77
2022-10-09T06:55:53.554Z,11.76
2022-10-09T06:58:20.312Z,11.79
2022-10-09T07:00:46.690Z,11.71
2022-10-09T07:03:13.461Z,11.63
2022-10-09T07:05:40.100Z,11.65
2022-10-09T07:08:06.528Z,11.67
2022-10-09T07:10:32.950Z,11.70
2022-10-09T07:12:59.154Z,11.76
2022-10-09T07:15:25.519Z,11.79
2022-10-09T07:17:51.774Z,11.86
2022-10-09T07:20:19.085Z,11.89
2022-10-09T07:22:45.298Z,11.90
2022-10-09T07:25:12.380Z,12.03
2022-10-09T07:27:38.594Z,12.09
2022-10-09T07:30:05.095Z,12.13
2022-10-09T07:32:31.399Z,12.16
2022-10-09T07:34:57.830Z,12.24
2022-10-09T07:37:24.089Z,12.28
2022-10-09T07:39:50.337Z,12.33
2022-10-09T07:42:26.681Z,12.43
2022-10-09T07:44:52.918Z,12.42
2022-10-09T07:47:19.153Z,12.47
2022-10-09T07:49:45.481Z,12.55
2022-10-09T07:52:13.078Z,12.59
2022-10-09T07:54:39.698Z,12.68
2022-10-09T07:57:07.075Z,12.71
2022-10-09T07:59:33.363Z,12.77
2022-10-09T08:01:59.638Z,12.84
2022-10-09T08:04:26.212Z,12.89
2022-10-09T08:06:52.461Z,12.94
2022-10-09T08:09:18.837Z,12.98
2022-10-09T08:11:45.158Z,13.05
2022-10-09T08:14:16.584Z,13.10
2022-10-09T08:16:45.167Z,13.11
2022-10-09T08:19:11.438Z,13.14
2022-10-09T08:21:38.221Z,13.20
2022-10-09T08:24:04.664Z,13.28
2022-10-09T08:26:36.623Z,13.38
2022-10-09T08:29:04.083Z,13.46
2022-10-09T08:31:31.892Z,13.54
2022-10-09T08:33:59.440Z,13.57
2022-10-09T08:36:25.849Z,13.65
2022-10-09T08:38:52.510Z,13.67
2022-10-09T08:41:37.730Z,13.77
2022-10-09T08:44:22.024Z,13.92
2022-10-09T08:46:59.335Z,13.97
2022-10-09T08:49:28.587Z,14.08
2022-10-09T08:51:56.902Z,14.17
2022-10-09T08:54:26.221Z,14.29
2022-10-09T08:56:52.852Z,14.36
2022-10-09T08:59:19.366Z,14.41
2022-10-09T09:01:49.630Z,14.57
2022-10-09T09:04:15.958Z,14.67
2022-10-09T09:06:45.192Z,14.76
2022-10-09T09:09:18.435Z,14.90
2022-10-09T09:11:56.307Z,14.98
2022-10-09T09:14:46.953Z,15.13
2022-10-09T09:17:15.895Z,15.22
2022-10-09T09:19:45.218Z,15.32
2022-10-09T09:22:13.378Z,15.49
2022-10-09T09:24:53.050Z,15.56
2022-10-09T09:27:20.594Z,15.70
2022-10-09T09:29:50.226Z,15.85
2022-10-09T09:32:20.310Z,15.92
2022-10-09T09:34:47.117Z,16.00
2022-10-09T09:37:13.516Z,16.20
2022-10-09T09:40:34.880Z,16.36
2022-10-09T09:42:27.276Z,16.39
2022-10-09T09:45:02.955Z,16.48
2022-10-09T09:47:47.768Z,16.59
2022-10-09T09:50:28.810Z,16.68
2022-10-09T09:53:28.951Z,16.75
2022-10-09T09:55:56.264Z,16.89
2022-10-09T09:58:22.920Z,17.02
2022-10-09T10:01:00.921Z,17.09
2022-10-09T10:03:27.686Z,17.27
2022-10-09T10:05:54.256Z,17.34
2022-10-09T10:08:23.007Z,17.49
2022-10-09T10:10:50.654Z,17.59
2022-10-09T10:13:46.046Z,17.77
2022-10-09T10:16:20.354Z,17.94
2022-10-09T10:18:46.641Z,18.24
2022-10-09T10:21:14.319Z,18.87
2022-10-09T10:23:49.843Z,20.95
2022-10-09T10:26:22.093Z,23.26
2022-10-09T10:28:51.726Z,24.56
2022-10-09T10:31:23.289Z,25.56
2022-10-09T10:33:52.001Z,25.65
2022-10-09T10:36:18.573Z,25.49
2022-10-09T10:38:49.956Z,25.27
2022-10-09T10:41:17.643Z,24.64
2022-10-09T10:43:45.876Z,24.23
2022-10-09T10:46:15.707Z,23.45
2022-10-09T10:48:43.440Z,22.47
2022-10-09T10:51:29.722Z,21.94
2022-10-09T10:53:58.776Z,21.65
2022-10-09T10:56:28.562Z,21.69
2022-10-09T10:59:05.592Z,21.88
2022-10-09T11:01:39.089Z,21.86
2022-10-09T11:04:41.154Z,21.79
2022-10-09T11:07:26.364Z,21.35
2022-10-09T11:09:56.100Z,21.37
2022-10-09T11:12:47.744Z,21.56
2022-10-09T11:15:37.439Z,21.51
2022-10-09T11:18:19.517Z,21.37
2022-10-09T11:21:15.936Z,21.26
2022-10-09T11:24:14.831Z,21.08
2022-10-09T11:26:41.063Z,21.07
2022-10-09T11:29:18.298Z,21.11
2022-10-09T11:31:55.372Z,21.11
2022-10-09T11:34:26.775Z,21.27
2022-10-09T11:36:53.495Z,21.62
2022-10-09T11:39:22.259Z,22.27
2022-10-09T11:41:50.077Z,22.30
2022-10-09T11:44:35.109Z,22.25
2022-10-09T11:47:10.667Z,22.14
2022-10-09T11:49:55.720Z,22.06
2022-10-09T11:52:35.856Z,21.87
2022-10-09T11:55:16.193Z,21.83
2022-10-09T11:57:42.468Z,21.91
2022-10-09T12:00:09.390Z,21.81
2022-10-09T12:02:36.750Z,21.83
2022-10-09T12:05:15.641Z,21.80
2022-10-09T12:07:42.017Z,21.82
2022-10-09T12:10:08.472Z,21.84
2022-10-09T12:12:37.717Z,21.94
2022-10-09T12:15:23.069Z,22.07
2022-10-09T12:17:49.995Z,22.03
2022-10-09T12:20:18.305Z,22.12
2022-10-09T12:23:01.437Z,22.27
2022-10-09T12:25:40.524Z,22.43
2022-10-09T12:28:14.143Z,22.65
2022-10-09T12:30:47.447Z,23.12
2022-10-09T12:33:32.753Z,23.18
2022-10-09T12:36:05.098Z,23.14
2022-10-09T12:38:31.857Z,23.13
2022-10-09T12:41:01.086Z,23.54
2022-10-09T12:43:27.831Z,23.75
2022-10-09T12:45:54.525Z,23.65
2022-10-09T12:48:22.086Z,23.65
2022-10-09T12:50:48.562Z,23.61
2022-10-09T12:53:16.613Z,23.56
2022-10-09T12:55:48.389Z,23.59
2022-10-09T12:58:29.334Z,23.78
2022-10-09T13:00:58.126Z,23.75
2022-10-09T13:03:51.826Z,24.06
2022-10-09T13:06:19.724Z,24.35
2022-10-09T13:08:51.363Z,24.70
2022-10-09T13:11:20.719Z,24.99
2022-10-09T13:13:51.168Z,25.07
2022-10-09T13:16:17.472Z,24.78
2022-10-09T13:18:43.994Z,24.61
2022-10-09T13:21:17.498Z,24.39
2022-10-09T13:23:43.894Z,24.27
2022-10-09T13:26:15.815Z,23.90
2022-10-09T13:28:42.102Z,23.80
2022-10-09T13:31:08.651Z,23.76
2022-10-09T13:33:35.280Z,23.67
2022-10-09T13:36:01.589Z,23.41
2022-10-09T13:38:30.285Z,23.35
2022-10-09T13:41:00.348Z,23.34
2022-10-09T13:43:27.377Z,23.46
2022-10-09T13:45:53.719Z,23.47
2022-10-09T13:48:20.134Z,23.31
2022-10-09T13:50:46.392Z,23.48
2022-10-09T13:53:12.711Z,23.49
2022-10-09T13:55:39.050Z,23.47
2022-10-09T13:58:05.367Z,23.32
2022-10-09T14:00:31.677Z,23.25
2022-10-09T14:02:58.154Z,23.45
2022-10-09T14:05:26.493Z,23.30
2022-10-09T14:07:53.065Z,23.27
2022-10-09T14:10:23.633Z,23.39
2022-10-09T14:12:51.431Z,23.34
2022-10-09T14:15:18.446Z,23.45
2022-10-09T14:20:19.935Z,23.41
2022-10-09T14:22:46.507Z,22.87
2022-10-09T14:25:13.059Z,23.22
2022-10-09T14:27:41.601Z,23.15
2022-10-09T14:30:11.077Z,23.12
2022-10-09T14:32:37.398Z,22.96
2022-10-09T14:35:03.945Z,23.10
2022-10-09T14:37:41.141Z,22.64
2022-10-09T14:40:08.979Z,22.60
2022-10-09T14:42:38.672Z,23.17
2022-10-09T14:45:06.376Z,23.26
2022-10-09T14:47:32.742Z,23.03
2022-10-09T14:49:59.060Z,23.29
2022-10-09T14:52:25.401Z,22.65
2022-10-09T14:54:51.756Z,23.34
2022-10-09T14:57:18.122Z,22.51
2022-10-09T14:59:44.514Z,22.61
2022-10-09T15:02:20.213Z,23.17
2022-10-09T15:04:46.807Z,23.16
2022-10-09T15:07:13.180Z,23.21
2022-10-09T15:09:39.550Z,22.46
2022-10-09T15:12:05.978Z,22.73
2022-10-09T15:14:32.384Z,22.72
2022-10-09T15:16:58.723Z,22.84
2022-10-09T15:19:25.138Z,22.63
2022-10-09T15:21:51.455Z,22.84
2022-10-09T15:24:17.941Z,22.40
2022-10-09T15:26:44.252Z,22.62
2022-10-09T15:29:12.009Z,22.96
2022-10-09T15:31:40.509Z,22.95
2022-10-09T15:34:08.256Z,22.23
2022-10-09T15:36:37.344Z,23.00
2022-10-09T15:39:07.123Z,23.03
2022-10-09T15:41:36.444Z,22.71
2022-10-09T15:44:07.004Z,22.75
2022-10-09T15:46:34.196Z,22.94
2022-10-09T15:49:00.590Z,22.73
2022-10-09T15:51:28.303Z,22.75
2022-10-09T15:53:56.051Z,22.91
2022-10-09T15:56:24.265Z,22.90
2022-10-09T15:58:51.745Z,22.89
2022-10-09T16:01:19.648Z,23.02
2022-10-09T16:03:46.762Z,22.98
2022-10-09T16:06:18.060Z,23.06
2022-10-09T16:08:44.677Z,23.02
2022-10-09T16:11:13.139Z,23.09
2022-10-09T16:16:09.507Z,22.47
2022-10-09T16:18:36.458Z,22.29
2022-10-09T16:21:19.030Z,22.00
2022-10-09T16:23:45.856Z,22.15
2022-10-09T16:26:14.947Z,21.89
2022-10-09T16:28:41.482Z,21.49
2022-10-09T16:31:08.008Z,21.78
2022-10-09T16:33:34.715Z,21.76
2022-10-09T16:36:09.155Z,21.92
2022-10-09T16:38:35.396Z,21.87
2022-10-09T16:41:02.685Z,21.74
2022-10-09T16:43:32.431Z,20.69
2022-10-09T16:46:09.181Z,20.83
2022-10-09T16:48:35.556Z,20.96
2022-10-09T16:51:01.881Z,21.04
2022-10-09T16:53:28.490Z,21.09
2022-10-09T16:55:54.850Z,20.61
2022-10-09T16:58:21.267Z,20.97
2022-10-09T17:00:47.628Z,20.46
2022-10-09T17:03:13.982Z,20.66
2022-10-09T17:05:40.493Z,20.66
2022-10-09T17:08:06.915Z,20.58
2022-10-09T17:10:33.288Z,19.79
2022-10-09T17:12:59.639Z,19.83
2022-10-09T17:15:25.940Z,20.26
2022-10-09T17:17:52.854Z,19.86
2022-10-09T17:20:19.485Z,20.66
2022-10-09T17:22:45.860Z,20.64
2022-10-09T17:25:13.619Z,19.81
2022-10-09T17:27:40.010Z,20.58
2022-10-09T17:30:07.135Z,20.58
2022-10-09T17:32:33.561Z,20.37
2022-10-09T17:34:59.922Z,20.63
2022-10-09T17:37:26.299Z,20.17
2022-10-09T17:39:52.724Z,20.00
2022-10-09T17:42:19.117Z,19.46
2022-10-09T17:44:45.474Z,20.12
2022-10-09T17:47:11.811Z,20.20
2022-10-09T17:49:38.293Z,19.66
2022-10-09T17:52:04.635Z,20.02
2022-10-09T17:54:31.098Z,20.07
2022-10-09T17:57:00.136Z,19.85
2022-10-09T17:59:27.095Z,19.63
2022-10-09T18:01:53.730Z,19.73
2022-10-09T18:04:20.157Z,19.82
2022-10-09T18:06:46.472Z,19.80
2022-10-09T18:09:12.822Z,19.59
2022-10-09T18:11:39.226Z,19.71
2022-10-09T18:14:05.679Z,19.66
2022-10-09T18:16:36.790Z,19.78
2022-10-09T18:19:14.513Z,19.59
2022-10-09T18:21:44.199Z,19.08
2022-10-09T18:24:11.633Z,19.35
2022-10-09T18:26:38.438Z,19.54
2022-10-09T18:29:05.097Z,19.54
2022-10-09T18:31:32.329Z,19.51
2022-10-09T18:34:00.161Z,19.19
2022-10-09T18:36:31.603Z,18.91
2022-10-09T18:39:07.179Z,17.87
2022-10-09T18:41:33.894Z,19.01
2022-10-09T18:44:00.923Z,19.17
2022-10-09T18:46:33.351Z,18.85
2022-10-09T18:49:00.055Z,19.00
2022-10-09T18:51:28.363Z,18.42
2022-10-09T18:53:59.854Z,18.19
2022-10-09T18:56:29.254Z,18.54
2022-10-09T18:58:55.655Z,18.59
2022-10-09T19:01:22.620Z,18.50
2022-10-09T19:03:50.246Z,18.51
2022-10-09T19:06:21.640Z,18.46
2022-10-09T19:08:48.089Z,18.45
2022-10-09T19:11:14.792Z,17.84
2022-10-09T19:13:42.790Z,18.59
2022-10-09T19:16:09.780Z,18.33
2022-10-09T19:18:36.925Z,18.66
2022-10-09T19:21:03.660Z,18.46
2022-10-09T19:23:30.251Z,18.02
2022-10-09T19:25:58.515Z,18.35
2022-10-09T19:28:26.958Z,18.53
2022-10-09T19:30:53.358Z,17.99
2022-10-09T19:33:19.696Z,18.33
2022-10-09T19:35:55.058Z,17.82
2022-10-09T19:38:22.969Z,17.72
2022-10-09T19:40:49.965Z,17.40
2022-10-09T19:43:17.625Z,18.01
2022-10-09T19:45:44.803Z,17.84
2022-10-09T19:48:11.272Z,17.60
2022-10-09T19:50:42.475Z,17.93
2022-10-09T19:53:09.328Z,17.97
2022-10-09T19:55:36.321Z,17.40
2022-10-09T19:58:03.589Z,17.78
2022-10-09T20:00:30.913Z,17.32
2022-10-09T20:02:57.307Z,16.65
2022-10-09T20:05:23.781Z,17.79
2022-10-09T20:07:50.293Z,17.29
2022-10-09T20:10:16.874Z,17.41
2022-10-09T20:12:43.481Z,16.85
2022-10-09T20:15:10.120Z,16.91
2022-10-09T20:17:36.565Z,17.50
2022-10-09T20:20:04.971Z,17.76
2022-10-09T20:22:31.591Z,17.63
2022-10-09T20:24:58.004Z,17.45
2022-10-09T20:27:24.527Z,17.45
2022-10-09T20:29:52.704Z,17.00
2022-10-09T20:32:19.062Z,17.10
2022-10-09T20:34:45.376Z,16.96
2022-10-09T20:37:11.920Z,16.96
2022-10-09T20:39:38.397Z,16.86
2022-10-09T20:42:04.813Z,16.29
2022-10-09T20:44:31.142Z,16.65
2022-10-09T20:46:57.526Z,16.40
2022-10-09T20:49:23.976Z,16.28
2022-10-09T20:51:51.121Z,16.27
2022-10-09T20:54:19.885Z,16.69
2022-10-09T20:56:46.661Z,16.39
2022-10-09T20:59:13.626Z,16.69
2022-10-09T21:01:40.170Z,16.14
2022-10-09T21:04:06.564Z,16.75
2022-10-09T21:06:34.064Z,16.78
2022-10-09T21:09:00.388Z,16.54
2022-10-09T21:11:26.808Z,16.93
2022-10-09T21:13:53.844Z,17.10
2022-10-09T21:16:22.786Z,17.00
2022-10-09T21:18:59.860Z,16.76
2022-10-09T21:21:28.206Z,17.00
2022-10-09T21:23:57.780Z,17.06
2022-10-09T21:26:25.540Z,17.07
2022-10-09T21:28:56.746Z,17.09
2022-10-09T21:31:28.220Z,16.96
2022-10-09T21:33:55.267Z,16.97
2022-10-09T21:36:34.289Z,17.14
2022-10-09T21:39:00.872Z,17.13
2022-10-09T21:41:27.510Z,16.92
2022-10-09T21:43:53.873Z,16.30
2022-10-09T21:46:20.303Z,16.33
2022-10-09T21:48:46.725Z,16.84
2022-10-09T21:51:13.190Z,16.45
2022-10-09T21:53:39.770Z,16.54
2022-10-09T21:56:07.168Z,16.68
2022-10-09T21:58:33.513Z,16.46
2022-10-09T22:01:01.594Z,16.57
2022-10-09T22:03:30.657Z,16.39
2022-10-09T22:05:57.155Z,16.40
2022-10-09T22:08:24.770Z,15.48
2022-10-09T22:10:51.774Z,16.25
2022-10-09T22:13:20.208Z,16.36
2022-10-09T22:15:50.929Z,16.25
2022-10-09T22:18:17.956Z,16.20
2022-10-09T22:20:49.567Z,15.77
2022-10-09T22:23:17.446Z,16.04
2022-10-09T22:25:43.852Z,15.42
2022-10-09T22:28:10.411Z,15.67
2022-10-09T22:30:36.854Z,15.28
2022-10-09T22:33:03.236Z,15.84
2022-10-09T22:35:29.817Z,15.78
2022-10-09T22:37:57.246Z,15.84
2022-10-09T22:40:23.696Z,15.81
2022-10-09T22:42:50.338Z,15.91
2022-10-09T22:45:16.991Z,15.45
2022-10-09T22:47:43.318Z,15.20
2022-10-09T22:50:09.874Z,15.07
2022-10-09T22:52:36.245Z,15.63
2022-10-09T22:55:03.379Z,15.62
2022-10-09T22:57:29.685Z,15.06
2022-10-09T22:59:56.061Z,15.20
2022-10-09T23:02:22.382Z,15.21
2022-10-09T23:04:48.726Z,15.67
2022-10-09T23:07:15.210Z,15.73
2022-10-09T23:09:41.567Z,15.12
2022-10-09T23:12:08.200Z,15.69
2022-10-09T23:14:34.712Z,15.57
2022-10-09T23:17:01.023Z,15.10
2022-10-09T23:19:27.451Z,15.53
2022-10-09T23:21:53.785Z,15.62
2022-10-09T23:24:20.193Z,15.26
2022-10-09T23:26:50.546Z,15.54
2022-10-09T23:29:18.506Z,15.22
2022-10-09T23:31:45.557Z,15.41
2022-10-09T23:34:12.932Z,15.33
2022-10-09T23:36:39.520Z,15.30
2022-10-09T23:39:06.827Z,14.73
2022-10-09T23:41:33.636Z,15.05
2022-10-09T23:43:59.983Z,15.36
2022-10-09T23:46:29.093Z,14.77
2022-10-09T23:48:56.417Z,14.77
2022-10-09T23:51:24.668Z,15.25
2022-10-09T23:53:51.572Z,15.22
2022-10-09T23:56:24.413Z,15.29
2022-10-09T23:58:51.597Z,14.96
